createdAt,value
2018-06-05T00:01:16.737Z,25.43
2018-06-05T00:03:44.227Z,25.27
2018-06-05T00:06:11.725Z,27.43
2018-06-05T00:08:39.212Z,26.87
2018-06-05T00:11:06.765Z,26.40
2018-06-05T00:13:34.276Z,27.07
2018-06-05T00:16:01.821Z,27.03
2018-06-05T00:18:29.317Z,26.97
2018-06-05T00:20:56.836Z,25.20
2018-06-05T00:23:24.339Z,29.27
2018-06-05T00:25:51.864Z,28.20
2018-06-05T00:28:19.355Z,26.57
2018-06-05T00:30:46.862Z,30.50
2018-06-05T00:33:14.370Z,26.23
2018-06-05T00:35:41.771Z,27.63
2018-06-05T00:38:09.304Z,25.83
2018-06-05T00:40:36.864Z,27.37
2018-06-05T00:43:04.449Z,26.63
2018-06-05T00:45:31.947Z,27.63
2018-06-05T00:48:00.280Z,28.80
2018-06-05T00:50:27.808Z,28.13
2018-06-05T00:52:55.341Z,27.87
2018-06-05T00:55:22.861Z,27.53
2018-06-05T00:57:50.372Z,30.07
2018-06-05T01:00:18.382Z,28.73
2018-06-05T01:02:45.924Z,29.80
2018-06-05T01:05:13.425Z,28.03
2018-06-05T01:07:40.965Z,28.50
2018-06-05T01:10:08.464Z,30.37
2018-06-05T01:12:35.989Z,29.83
2018-06-05T01:15:03.625Z,28.73
2018-06-05T01:17:31.141Z,30.33
2018-06-05T01:19:58.646Z,28.90
2018-06-05T01:22:26.746Z,34.23
2018-06-05T01:24:54.232Z,30.40
2018-06-05T01:27:21.745Z,31.83
2018-06-05T01:29:49.252Z,32.23
2018-06-05T01:32:16.756Z,31.33
2018-06-05T01:34:44.258Z,30.90
2018-06-05T01:37:11.801Z,34.17
2018-06-05T01:39:39.325Z,36.67
2018-06-05T01:42:06.915Z,35.83
2018-06-05T01:44:34.459Z,36.97
2018-06-05T01:47:01.981Z,33.10
2018-06-05T01:49:35.141Z,37.70
2018-06-05T01:52:02.999Z,36.87
2018-06-05T01:54:30.497Z,34.60
2018-06-05T01:56:58.007Z,37.60
2018-06-05T01:59:25.537Z,40.57
2018-06-05T02:01:53.037Z,36.37
2018-06-05T02:04:20.549Z,34.17
2018-06-05T02:06:48.056Z,33.83
2018-06-05T02:09:15.564Z,32.67
2018-06-05T02:11:43.060Z,34.60
2018-06-05T02:14:10.667Z,34.70
2018-06-05T02:16:38.167Z,32.57
2018-06-05T02:19:05.926Z,33.33
2018-06-05T02:21:33.412Z,36.40
2018-06-05T02:24:00.928Z,36.70
2018-06-05T02:26:28.408Z,35.90
2018-06-05T02:28:55.925Z,37.57
2018-06-05T02:31:23.443Z,35.37
2018-06-05T02:33:50.982Z,36.23
2018-06-05T02:36:18.487Z,32.07
2018-06-05T02:38:46.037Z,34.83
2018-06-05T02:41:13.917Z,37.20
2018-06-05T02:43:41.428Z,36.17
2018-06-05T02:46:08.845Z,41.63
2018-06-05T02:48:36.349Z,40.10
2018-06-05T02:51:04.317Z,38.30
2018-06-05T02:53:31.855Z,38.50
2018-06-05T02:55:59.368Z,38.70
2018-06-05T02:58:26.897Z,39.77
2018-06-05T03:00:54.332Z,38.83
2018-06-05T03:03:21.848Z,40.07
2018-06-05T03:05:49.993Z,38.13
2018-06-05T03:08:17.579Z,41.83
2018-06-05T03:10:45.086Z,43.00
2018-06-05T03:13:12.626Z,43.10
2018-06-05T03:15:40.143Z,43.10
2018-06-05T03:18:07.632Z,45.57
2018-06-05T03:20:35.151Z,42.63
2018-06-05T03:23:02.652Z,44.47
2018-06-05T03:25:30.212Z,43.37
2018-06-05T03:27:57.697Z,46.67
2018-06-05T03:30:25.228Z,53.00
2018-06-05T03:32:52.716Z,51.50
2018-06-05T03:35:20.256Z,53.93
2018-06-05T03:37:47.768Z,55.20
2018-06-05T03:40:15.293Z,58.80
2018-06-05T03:42:42.783Z,55.63
2018-06-05T03:45:10.288Z,56.73
2018-06-05T03:47:37.821Z,52.70
2018-06-05T03:50:05.401Z,50.30
2018-06-05T03:52:32.939Z,53.20
2018-06-05T03:55:00.465Z,60.60
2018-06-05T03:57:28.017Z,58.50
2018-06-05T03:59:55.556Z,49.00
2018-06-05T04:02:23.051Z,45.07
2018-06-05T04:04:50.572Z,49.43
2018-06-05T04:07:18.112Z,53.80
2018-06-05T04:09:45.648Z,54.03
2018-06-05T04:12:13.161Z,51.17
2018-06-05T04:14:40.705Z,52.87
2018-06-05T04:17:08.219Z,47.27
2018-06-05T04:19:35.757Z,53.80
2018-06-05T04:22:03.273Z,51.73
2018-06-05T04:24:30.812Z,44.70
2018-06-05T04:26:58.322Z,47.53
2018-06-05T04:29:25.844Z,47.40
2018-06-05T04:31:53.951Z,44.97
2018-06-05T04:34:21.500Z,53.53
2018-06-05T04:36:49.068Z,52.33
2018-06-05T04:39:16.617Z,54.50
2018-06-05T04:41:44.121Z,57.90
2018-06-05T04:44:11.656Z,49.87
2018-06-05T04:46:39.163Z,49.30
2018-06-05T04:49:06.700Z,55.00
2018-06-05T04:51:34.204Z,48.63
2018-06-05T04:54:01.747Z,48.47
2018-06-05T04:56:29.273Z,47.20
2018-06-05T04:58:56.789Z,48.87
2018-06-05T05:01:24.314Z,45.47
2018-06-05T05:03:51.882Z,45.50
2018-06-05T05:06:20.048Z,47.80
2018-06-05T05:08:47.545Z,42.87
2018-06-05T05:11:15.138Z,40.43
2018-06-05T05:13:42.704Z,44.60
2018-06-05T05:16:10.220Z,38.60
2018-06-05T05:18:37.716Z,39.83
2018-06-05T05:21:05.258Z,43.20
2018-06-05T05:23:32.772Z,45.87
2018-06-05T05:26:00.296Z,49.50
2018-06-05T05:28:27.804Z,42.10
2018-06-05T05:30:55.403Z,43.30
2018-06-05T05:33:22.920Z,47.03
2018-06-05T05:35:50.473Z,41.97
2018-06-05T05:38:18.048Z,38.07
2018-06-05T05:40:45.579Z,41.07
2018-06-05T05:43:13.885Z,43.30
2018-06-05T05:45:41.415Z,41.07
2018-06-05T05:48:08.934Z,41.07
2018-06-05T05:50:36.535Z,40.43
2018-06-05T05:53:04.119Z,36.97
2018-06-05T05:55:31.647Z,43.23
2018-06-05T05:57:59.177Z,40.77
2018-06-05T06:00:26.741Z,38.77
2018-06-05T06:02:54.232Z,35.47
2018-06-05T06:05:21.782Z,43.53
2018-06-05T06:07:49.305Z,42.40
2018-06-05T06:10:16.849Z,40.33
2018-06-05T06:12:44.352Z,38.67
2018-06-05T06:15:11.973Z,37.37
2018-06-05T06:17:39.493Z,42.20
2018-06-05T06:20:07.009Z,46.67
2018-06-05T06:22:34.501Z,42.00
2018-06-05T06:25:02.070Z,42.37
2018-06-05T06:27:29.567Z,49.13
2018-06-05T06:29:57.161Z,38.73
2018-06-05T06:32:24.739Z,42.87
2018-06-05T06:34:52.248Z,39.43
2018-06-05T06:37:19.787Z,43.07
2018-06-05T06:39:47.357Z,45.27
2018-06-05T06:42:14.888Z,46.67
2018-06-05T06:44:42.460Z,41.97
2018-06-05T06:47:09.987Z,45.93
2018-06-05T06:49:37.472Z,47.90
2018-06-05T06:52:05.013Z,43.87
2018-06-05T06:54:32.606Z,47.00
2018-06-05T06:57:00.113Z,50.67
2018-06-05T06:59:27.611Z,45.77
2018-06-05T07:01:55.168Z,40.87
2018-06-05T07:04:22.683Z,43.17
2018-06-05T07:06:50.244Z,42.43
2018-06-05T07:09:17.760Z,47.00
2018-06-05T07:11:45.281Z,43.30
2018-06-05T07:14:12.777Z,44.93
2018-06-05T07:16:40.312Z,44.80
2018-06-05T07:19:07.823Z,43.73
2018-06-05T07:21:35.362Z,46.97
2018-06-05T07:24:02.953Z,42.93
2018-06-05T07:26:30.478Z,45.37
2018-06-05T07:28:58.011Z,42.93
2018-06-05T07:31:25.583Z,50.13
2018-06-05T07:33:53.122Z,48.83
2018-06-05T07:36:20.680Z,49.50
2018-06-05T07:38:48.240Z,45.10
2018-06-05T07:41:15.869Z,53.37
2018-06-05T07:43:43.361Z,46.70
2018-06-05T07:46:10.898Z,43.30
2018-06-05T07:48:38.441Z,45.17
2018-06-05T07:51:05.985Z,46.93
2018-06-05T07:53:33.508Z,48.57
2018-06-05T07:56:01.051Z,41.40
2018-06-05T07:58:28.708Z,39.87
2018-06-05T08:00:56.266Z,44.17
2018-06-05T08:03:23.744Z,40.57
2018-06-05T08:05:51.284Z,44.03
2018-06-05T08:08:18.781Z,37.33
2018-06-05T08:10:46.309Z,43.10
2018-06-05T08:13:13.860Z,41.87
2018-06-05T08:15:41.353Z,37.90
2018-06-05T08:18:08.884Z,40.33
2018-06-05T08:20:37.086Z,39.97
2018-06-05T08:23:04.728Z,32.97
2018-06-05T08:25:32.265Z,36.40
2018-06-05T08:27:59.802Z,38.43
2018-06-05T08:30:27.363Z,33.80
2018-06-05T08:32:54.920Z,37.03
2018-06-05T08:35:22.442Z,34.30
2018-06-05T08:37:50.022Z,33.43
2018-06-05T08:40:17.493Z,36.13
2018-06-05T08:42:45.021Z,35.90
2018-06-05T08:45:12.549Z,37.53
2018-06-05T08:47:40.109Z,35.47
2018-06-05T08:50:07.634Z,39.67
2018-06-05T08:52:35.657Z,36.70
2018-06-05T08:55:03.296Z,36.27
2018-06-05T08:57:30.837Z,44.43
2018-06-05T08:59:58.410Z,44.50
2018-06-05T09:02:26.012Z,37.30
2018-06-05T09:04:53.522Z,39.07
2018-06-05T09:07:21.079Z,39.57
2018-06-05T09:09:48.724Z,34.70
2018-06-05T09:12:16.282Z,35.47
2018-06-05T09:14:43.820Z,40.93
2018-06-05T09:17:11.353Z,34.40
2018-06-05T09:19:38.885Z,37.80
2018-06-05T09:22:06.881Z,37.70
2018-06-05T09:24:34.409Z,37.57
2018-06-05T09:27:01.977Z,34.70
2018-06-05T09:29:29.481Z,38.30
2018-06-05T09:31:57.061Z,36.30
2018-06-05T09:34:24.618Z,41.83
2018-06-05T09:36:52.052Z,37.00
2018-06-05T09:39:19.572Z,39.70
2018-06-05T09:41:47.088Z,40.77
2018-06-05T09:44:14.607Z,35.97
2018-06-05T09:46:42.244Z,33.10
2018-06-05T09:49:09.790Z,36.63
2018-06-05T09:51:37.305Z,34.40
2018-06-05T09:54:04.965Z,34.63
2018-06-05T09:56:32.490Z,32.17
2018-06-05T09:59:00.065Z,35.40
2018-06-05T10:01:27.572Z,33.33
2018-06-05T10:03:55.201Z,33.27
2018-06-05T10:06:22.700Z,32.03
2018-06-05T10:08:50.231Z,31.13
2018-06-05T10:11:17.765Z,32.67
2018-06-05T10:13:45.331Z,32.73
2018-06-05T10:16:12.873Z,33.87
2018-06-05T10:18:40.418Z,31.10
2018-06-05T10:21:07.920Z,36.20
2018-06-05T10:23:35.441Z,32.33
2018-06-05T10:26:03.048Z,30.87
2018-06-05T10:28:30.551Z,40.83
2018-06-05T10:30:58.100Z,44.30
2018-06-05T10:33:25.604Z,41.57
2018-06-05T10:35:53.094Z,39.83
2018-06-05T10:38:20.634Z,41.40
2018-06-05T10:40:48.174Z,44.00
2018-06-05T10:43:15.772Z,38.60
2018-06-05T10:45:43.292Z,36.67
2018-06-05T10:48:10.777Z,42.83
2018-06-05T10:50:38.777Z,43.57
2018-06-05T10:53:06.692Z,45.77
2018-06-05T10:55:34.839Z,41.73
2018-06-05T10:58:02.385Z,43.63
2018-06-05T11:00:30.021Z,40.60
2018-06-05T11:02:57.631Z,46.40
2018-06-05T11:05:25.365Z,43.33
2018-06-05T11:07:52.899Z,42.23
2018-06-05T11:10:20.437Z,43.37
2018-06-05T11:12:48.005Z,42.27
2018-06-05T11:15:15.545Z,48.07
2018-06-05T11:17:43.039Z,44.90
2018-06-05T11:20:10.581Z,42.77
2018-06-05T11:22:38.272Z,40.80
2018-06-05T11:25:05.953Z,44.53
2018-06-05T11:27:33.483Z,41.90
2018-06-05T11:30:01.119Z,40.87
2018-06-05T11:32:28.579Z,42.53
2018-06-05T11:34:56.118Z,53.33
2018-06-05T11:37:24.948Z,48.23
2018-06-05T11:39:52.508Z,39.60
2018-06-05T11:42:20.017Z,46.57
2018-06-05T11:44:47.524Z,44.47
2018-06-05T11:47:15.035Z,46.17
2018-06-05T11:49:42.594Z,45.07
2018-06-05T11:52:10.178Z,52.20
2018-06-05T11:54:37.689Z,50.40
2018-06-05T11:57:05.268Z,55.90
2018-06-05T11:59:32.804Z,45.77
2018-06-05T12:02:00.405Z,50.73
2018-06-05T12:04:27.950Z,53.97
2018-06-05T12:06:55.534Z,53.83
2018-06-05T12:09:23.093Z,56.17
2018-06-05T12:11:50.674Z,49.20
2018-06-05T12:14:18.233Z,50.57
2018-06-05T12:16:45.719Z,51.73
2018-06-05T12:19:13.248Z,54.77
2018-06-05T12:21:40.758Z,49.80
2018-06-05T12:24:08.293Z,51.43
2018-06-05T12:26:35.800Z,56.60
2018-06-05T12:29:03.624Z,55.30
2018-06-05T12:31:31.178Z,67.60
2018-06-05T12:33:58.721Z,62.77
2018-06-05T12:36:26.247Z,59.07
2018-06-05T12:41:28.118Z,55.73
2018-06-05T12:43:55.682Z,55.13
2018-06-05T12:46:23.206Z,53.90
2018-06-05T12:48:50.755Z,58.40
2018-06-05T12:51:18.282Z,60.37
2018-06-05T12:53:46.004Z,53.57
2018-06-05T12:56:13.697Z,52.83
2018-06-05T12:58:41.224Z,51.40
2018-06-05T13:01:08.741Z,54.53
2018-06-05T13:03:36.255Z,49.67
2018-06-05T13:06:03.873Z,49.93
2018-06-05T13:08:31.400Z,49.37
2018-06-05T13:10:58.966Z,47.23
2018-06-05T13:13:26.487Z,46.47
2018-06-05T13:15:54.055Z,45.60
2018-06-05T13:18:21.619Z,44.03
2018-06-05T13:20:49.253Z,44.30
2018-06-05T13:23:16.849Z,45.30
2018-06-05T13:25:44.649Z,51.90
2018-06-05T13:28:12.175Z,45.97
2018-06-05T13:30:40.003Z,38.60
2018-06-05T13:33:07.574Z,35.13
2018-06-05T13:35:35.153Z,35.13
2018-06-05T13:38:03.031Z,26.87
2018-06-05T13:40:30.665Z,26.40
2018-06-05T13:42:58.470Z,28.83
2018-06-05T13:45:26.024Z,27.20
2018-06-05T13:47:53.548Z,34.67
2018-06-05T13:50:21.154Z,32.10
2018-06-05T13:52:48.684Z,30.83
2018-06-05T13:55:16.270Z,31.97
2018-06-05T13:57:43.821Z,29.63
2018-06-05T14:00:11.437Z,30.77
2018-06-05T14:02:40.872Z,25.13
2018-06-05T14:05:08.433Z,25.73
2018-06-05T14:07:35.982Z,27.00
2018-06-05T14:10:06.852Z,27.23
2018-06-05T14:12:34.486Z,33.40
2018-06-05T14:15:02.235Z,29.47
2018-06-05T14:17:29.860Z,29.73
2018-06-05T14:19:59.149Z,28.53
2018-06-05T14:22:26.637Z,29.10
2018-06-05T14:24:54.171Z,28.67
2018-06-05T14:27:21.711Z,30.27
2018-06-05T14:29:49.261Z,29.37
2018-06-05T14:32:16.960Z,30.73
2018-06-05T14:34:44.501Z,31.03
2018-06-05T14:37:12.141Z,29.10
2018-06-05T14:39:39.692Z,30.70
2018-06-05T14:42:07.324Z,28.27
2018-06-05T14:44:34.864Z,33.13
2018-06-05T14:47:02.498Z,31.57
2018-06-05T14:49:30.170Z,32.43
2018-06-05T14:51:57.643Z,33.87
2018-06-05T14:54:25.227Z,32.90
2018-06-05T14:56:52.785Z,39.93
2018-06-05T14:59:20.316Z,33.13
2018-06-05T15:01:47.828Z,30.90
2018-06-05T15:04:15.364Z,31.40
2018-06-05T15:06:42.937Z,31.33
2018-06-05T15:09:10.513Z,32.57
2018-06-05T15:11:38.157Z,35.70
2018-06-05T15:14:05.777Z,33.13
2018-06-05T15:16:33.300Z,33.87
2018-06-05T15:19:00.797Z,35.63
2018-06-05T15:21:28.353Z,36.20
2018-06-05T15:23:56.014Z,33.57
2018-06-05T15:26:23.595Z,33.00
2018-06-05T15:28:51.135Z,32.63
2018-06-05T15:31:18.858Z,33.93
2018-06-05T15:33:46.396Z,33.17
2018-06-05T15:36:13.940Z,33.60
2018-06-05T15:38:41.680Z,32.90
2018-06-05T15:41:09.284Z,31.87
2018-06-05T15:43:36.919Z,33.10
2018-06-05T15:46:04.565Z,34.57
2018-06-05T15:48:32.121Z,32.63
2018-06-05T15:50:59.689Z,41.07
2018-06-05T15:53:27.208Z,34.70
2018-06-05T15:55:55.757Z,33.03
2018-06-05T15:58:23.278Z,33.07
2018-06-05T16:00:50.864Z,33.23
2018-06-05T16:03:18.363Z,32.30
2018-06-05T16:05:45.918Z,33.93
2018-06-05T16:08:13.481Z,31.93
2018-06-05T16:10:41.247Z,31.97
2018-06-05T16:13:08.803Z,33.50
2018-06-05T16:15:36.216Z,33.93
2018-06-05T16:18:04.013Z,30.07
2018-06-05T16:20:31.657Z,32.50
2018-06-05T16:22:59.182Z,33.60
2018-06-05T16:25:26.728Z,31.90
2018-06-05T16:27:54.236Z,34.27
2018-06-05T16:30:21.886Z,33.17
2018-06-05T16:32:49.457Z,33.67
2018-06-05T16:35:16.997Z,33.67
2018-06-05T16:37:44.497Z,34.70
2018-06-05T16:40:12.120Z,35.23
2018-06-05T16:42:39.667Z,38.17
2018-06-05T16:45:07.233Z,34.20
2018-06-05T16:47:34.787Z,33.77
2018-06-05T16:50:02.292Z,33.07
2018-06-05T16:52:29.913Z,34.83
2018-06-05T16:54:57.489Z,35.47
2018-06-05T16:57:25.202Z,32.33
2018-06-05T16:59:52.845Z,34.47
2018-06-05T17:02:20.442Z,33.07
2018-06-05T17:04:48.019Z,34.43
2018-06-05T17:07:15.565Z,34.07
2018-06-05T17:09:43.061Z,34.17
2018-06-05T17:12:10.600Z,32.03
2018-06-05T17:14:38.097Z,36.90
2018-06-05T17:17:05.973Z,39.03
2018-06-05T17:19:33.929Z,31.83
2018-06-05T17:22:01.543Z,31.30
2018-06-05T17:24:29.273Z,32.13
2018-06-05T17:26:57.078Z,30.80
2018-06-05T17:29:24.599Z,30.20
2018-06-05T17:31:52.122Z,29.20
2018-06-05T17:34:19.872Z,30.90
2018-06-05T17:36:47.533Z,30.70
2018-06-05T17:39:15.113Z,31.67
2018-06-05T17:41:42.977Z,30.47
2018-06-05T17:44:10.603Z,33.20
2018-06-05T17:46:38.129Z,31.70
2018-06-05T17:49:05.693Z,29.53
2018-06-05T17:51:33.226Z,30.50
2018-06-05T17:54:00.895Z,30.20
2018-06-05T17:56:28.496Z,29.73
2018-06-05T17:58:56.007Z,30.10
2018-06-05T18:01:23.705Z,29.77
2018-06-05T18:03:51.335Z,31.87
2018-06-05T18:06:18.892Z,30.43
2018-06-05T18:08:46.584Z,31.43
2018-06-05T18:11:14.405Z,30.20
2018-06-05T18:13:41.975Z,30.70
2018-06-05T18:16:09.642Z,28.10
2018-06-05T18:18:37.991Z,31.57
2018-06-05T18:21:06.070Z,31.60
2018-06-05T18:23:33.536Z,30.60
2018-06-05T18:26:01.446Z,32.13
2018-06-05T18:28:29.310Z,33.17
2018-06-05T18:30:57.073Z,31.67
2018-06-05T18:33:25.002Z,30.37
2018-06-05T18:35:52.865Z,30.73
2018-06-05T18:38:20.458Z,29.80
2018-06-05T18:40:49.068Z,31.67
2018-06-05T18:43:16.633Z,29.83
2018-06-05T18:45:44.310Z,32.03
2018-06-05T18:48:12.278Z,31.20
2018-06-05T18:50:40.326Z,28.17
2018-06-05T18:53:07.862Z,30.00
2018-06-05T18:55:35.397Z,29.57
2018-06-05T18:58:02.952Z,31.13
2018-06-05T19:00:30.523Z,29.30
2018-06-05T19:02:58.043Z,33.40
2018-06-05T19:05:25.638Z,30.57
2018-06-05T19:07:53.161Z,30.93
2018-06-05T19:10:21.533Z,33.27
2018-06-05T19:12:49.074Z,31.50
2018-06-05T19:15:16.955Z,33.10
2018-06-05T19:17:45.169Z,30.90
2018-06-05T19:20:12.723Z,31.13
2018-06-05T19:22:41.280Z,32.83
2018-06-05T19:25:09.618Z,31.10
2018-06-05T19:27:37.550Z,36.17
2018-06-05T19:30:05.135Z,31.77
2018-06-05T19:32:33.539Z,31.53
2018-06-05T19:35:01.682Z,32.67
2018-06-05T19:37:30.073Z,36.07
2018-06-05T19:39:57.790Z,36.00
2018-06-05T19:42:26.103Z,36.73
2018-06-05T19:44:53.972Z,35.97
2018-06-05T19:47:21.688Z,34.00
2018-06-05T19:49:49.248Z,37.37
2018-06-05T19:52:17.138Z,32.60
2018-06-05T19:54:45.367Z,32.57
2018-06-05T19:57:13.918Z,39.00
2018-06-05T19:59:42.201Z,34.80
2018-06-05T20:02:11.095Z,35.13
2018-06-05T20:04:39.313Z,32.07
2018-06-05T20:07:07.454Z,35.67
2018-06-05T20:09:35.358Z,36.37
2018-06-05T20:12:03.033Z,32.73
2018-06-05T20:14:30.564Z,33.57
2018-06-05T20:16:58.537Z,36.87
2018-06-05T20:19:27.045Z,37.73
2018-06-05T20:21:55.872Z,36.27
2018-06-05T20:24:23.376Z,34.63
2018-06-05T20:26:51.132Z,34.80
2018-06-05T20:29:19.445Z,38.83
2018-06-05T20:31:46.944Z,41.30
2018-06-05T20:34:14.690Z,37.90
2018-06-05T20:36:42.765Z,39.77
2018-06-05T20:39:11.519Z,42.33
2018-06-05T20:41:39.979Z,39.53
2018-06-05T20:44:08.140Z,42.73
2018-06-05T20:46:35.661Z,40.10
2018-06-05T20:49:03.381Z,42.40
2018-06-05T20:51:30.962Z,38.60
2018-06-05T20:53:58.496Z,41.70
2018-06-05T20:56:26.012Z,41.03
2018-06-05T20:58:53.719Z,41.80
2018-06-05T21:01:21.243Z,48.03
2018-06-05T21:03:49.217Z,39.70
2018-06-05T21:06:16.950Z,42.40
2018-06-05T21:08:44.489Z,43.93
2018-06-05T21:11:11.987Z,42.60
2018-06-05T21:13:39.545Z,39.57
2018-06-05T21:16:07.066Z,65.20
2018-06-05T21:18:34.601Z,53.87
2018-06-05T21:21:02.105Z,44.43
2018-06-05T21:23:29.625Z,42.70
2018-06-05T21:25:57.146Z,79.73
2018-06-05T21:28:24.941Z,51.40
2018-06-05T21:30:52.497Z,41.60
2018-06-05T21:33:20.020Z,42.20
2018-06-05T21:35:47.554Z,44.50
2018-06-05T21:38:15.073Z,45.80
2018-06-05T21:40:42.633Z,41.40
2018-06-05T21:43:10.472Z,43.30
2018-06-05T21:45:37.997Z,46.67
2018-06-05T21:48:05.621Z,45.40
2018-06-05T21:50:33.425Z,41.53
2018-06-05T21:53:01.013Z,43.73
2018-06-05T21:55:28.641Z,47.53
2018-06-05T21:57:56.368Z,48.90
2018-06-05T22:00:24.136Z,41.20
2018-06-05T22:02:51.661Z,43.20
2018-06-05T22:05:19.373Z,45.00
2018-06-05T22:07:46.909Z,43.90
2018-06-05T22:10:14.585Z,47.87
2018-06-05T22:12:42.429Z,48.20
2018-06-05T22:15:10.006Z,48.93
2018-06-05T22:17:37.808Z,42.60
2018-06-05T22:20:05.576Z,42.30
2018-06-05T22:22:33.108Z,43.47
2018-06-05T22:25:00.677Z,46.70
2018-06-05T22:27:30.521Z,40.70
2018-06-05T22:29:58.029Z,42.50
2018-06-05T22:32:25.544Z,43.20
2018-06-05T22:34:53.049Z,47.60
2018-06-05T22:37:20.578Z,44.27
2018-06-05T22:39:48.094Z,50.27
2018-06-05T22:42:15.621Z,47.93
2018-06-05T22:44:43.121Z,42.90
2018-06-05T22:47:10.659Z,46.60
2018-06-05T22:49:38.170Z,44.60
2018-06-05T22:52:05.696Z,50.97
2018-06-05T22:54:33.219Z,49.17
2018-06-05T22:57:00.781Z,53.90
2018-06-05T22:59:28.306Z,47.27
2018-06-05T23:01:55.836Z,49.30
2018-06-05T23:04:23.340Z,49.40
2018-06-05T23:06:50.885Z,48.90
2018-06-05T23:09:18.405Z,50.07
2018-06-05T23:11:45.925Z,50.30
2018-06-05T23:14:13.460Z,48.57
2018-06-05T23:16:41.018Z,54.63
2018-06-05T23:19:08.548Z,47.77
2018-06-05T23:21:35.960Z,50.50
2018-06-05T23:24:03.519Z,52.50
2018-06-05T23:26:31.055Z,48.53
2018-06-05T23:28:58.565Z,48.97
2018-06-05T23:31:26.090Z,46.80
2018-06-05T23:33:53.621Z,54.90
2018-06-05T23:36:21.117Z,49.73
2018-06-05T23:38:48.653Z,44.53
2018-06-05T23:41:16.173Z,51.10
2018-06-05T23:43:43.702Z,43.83
2018-06-05T23:46:11.190Z,53.77
2018-06-05T23:48:38.728Z,45.20
2018-06-05T23:51:06.239Z,44.63
2018-06-05T23:53:33.790Z,47.53
2018-06-05T23:56:01.326Z,45.23
2018-06-05T23:58:28.852Z,48.20
